ENHK

Hasvik Airport

Hasvik, Norway
METAR ENHK 191250Z 12018KT CAVOK 11/05 Q1000
Observed Flight Rules
Sep-19 @ 12:50 UTC (35 minutes ago) Visual Flight Rules
Wind Visibility Clouds
120° at 18 knots 10,000+ meters
  • Clear skies
Temperatures Readings
Current 11°C / 52°F
Dewpoint 5°C / 41°F
Humidity 67%
Altimeter 29.53" Hg
Pressure 1000 hPa
Elevation 10
METAR ENHK 191250Z 12018KT CAVOK 11/05 Q1000
Observed Flight Rules
Sep-19 @ 12:50 UTC
(35 minutes ago)
VFR
Wind Visibility
120° at 18 knots 10,000+ meters
Clouds
  • Clear skies
Temperature Dewpoint
11°C / 52°F 5°C / 41°F
Humidity Altimeter Pressure
67% 29.53" Hg 1000 hPa